Huvudsida
METAR-TAF:

METAR-TAF

Flygplatser :

Tanger-Ibn Battoutas flygplats

Tanger, Marocko

latitud: 35-44N, longitud: 005-54W, höjd: 19 m

Aktuellt väderrapport

Denna rapport gjordes för 33 minuter sedan, klockan 05:00 UTC
Vind 14 kt från ost
Temperatur 25°C
Fuktighet 74%
Tryck 1014 hPa
Sikt 10 km eller mer
Inga moln under 1 500 m eller inga cumulonimbus

METAR: GMTT 230500Z 10014KT CAVOK 25/20 Q1014 NOSIG

Tid: 06:33 (05:33 UTC)

Väderprognos

Denna rapport gjordes för 6 timmar och 33 minuter sedan, klockan 23:00 UTC
Prognos gäller från 23 kl. 00 UTC till 24 kl. 06 UTC
Vind 17 kt från ost
Sikt 10 km eller mer
Inga moln under 1 500 m eller inga cumulonimbus

TAF: GMTT 222300Z 2300/2406 08017KT CAVOK

Aktuella väderrapporter och prognoser från 4000 flygplatser (METAR- och TAF-rapporter).

De tillgängliga stationerna syns som gula och röda prickar på kartan.

För musen över prickarna för att se namnen på stationerna.

Klicka sedan för att få väderrapporter och prognoser.

För att ändra kartan: Klicka på de gröna knapparna med ett svart kors på för att zooma in; den gröna knappen med ett streck på för att zooma ut; eller på de gröna pilarna för angränsande kartor.


METAR-TAF: